Time;durP1;ratioP1;P1;durP2;ratioP2;P2;SDS_P1;SDS_P2;PMS_P1;PMS_P2;Temp;Humidity;BMP_temperature;BMP_pressure;BME280_temperature;BME280_humidity;BME280_pressure;Samples;Min_cycle;Max_cycle;Signal;HPM_P1;HPM_P2
2022/03/22 00:00:39;;;;;;;12.60;7.93;;;;;;;-1.16;53.16;101354.34;4913050;29;20325;-78
2022/03/22 00:03:07;;;;;;;11.43;8.13;;;;;;;-1.19;53.53;101359.81;4914559;29;20258;-78
2022/03/22 00:05:34;;;;;;;13.30;8.47;;;;;;;-1.21;53.94;101361.72;4907312;29;20594;-79
2022/03/22 00:08:02;;;;;;;11.03;8.00;;;;;;;-1.22;54.05;101362.66;4912075;29;20230;-75
2022/03/22 00:10:29;;;;;;;10.33;8.20;;;;;;;-1.27;54.43;101360.34;4909305;29;20340;-78
2022/03/22 00:12:56;;;;;;;13.10;7.83;;;;;;;-1.31;54.93;101356.25;4907215;29;20230;-78
2022/03/22 00:15:22;;;;;;;11.47;7.87;;;;;;;-1.34;55.33;101359.06;4910739;29;20277;-78
2022/03/22 00:18:10;;;;;;;10.83;7.90;;;;;;;-1.43;55.83;101362.28;4913887;29;20222;-78
2022/03/22 00:20:37;;;;;;;10.77;8.33;;;;;;;-1.47;56.48;101359.03;4911533;29;20329;-79
2022/03/22 00:23:04;;;;;;;10.97;7.73;;;;;;;-1.53;56.69;101359.41;4909146;29;20234;-78
2022/03/22 00:25:31;;;;;;;10.17;7.73;;;;;;;-1.55;56.21;101361.31;4913363;29;20274;-79
2022/03/22 00:27:58;;;;;;;12.03;8.20;;;;;;;-1.58;56.03;101361.50;4914495;29;20713;-79
2022/03/22 00:30:29;;;;;;;11.07;7.73;;;;;;;-1.61;55.89;101360.88;4912534;29;20285;-79
2022/03/22 00:32:59;;;;;;;10.87;7.57;;;;;;;-1.67;56.19;101363.88;4907421;29;20246;-80
2022/03/22 00:35:28;;;;;;;11.67;7.50;;;;;;;-1.77;56.54;101361.00;4916283;29;20785;-79
2022/03/22 00:37:57;;;;;;;10.40;7.63;;;;;;;-1.86;56.96;101351.94;4909618;29;20711;-80
2022/03/22 00:40:27;;;;;;;11.67;7.80;;;;;;;-1.92;57.54;101352.34;4914720;29;20903;-78
2022/03/22 00:42:56;;;;;;;11.27;8.13;;;;;;;-1.97;57.59;101357.06;4907314;29;20235;-79
2022/03/22 00:45:31;;;;;;;10.37;7.50;;;;;;;-1.98;57.72;101365.03;4910502;29;20309;-78
2022/03/22 00:47:59;;;;;;;8.93;7.43;;;;;;;-2.05;57.92;101356.69;4913830;29;20245;-79
2022/03/22 00:50:36;;;;;;;12.37;8.53;;;;;;;-2.06;57.81;101357.63;4911004;29;20784;-79
2022/03/22 00:53:05;;;;;;;12.20;8.63;;;;;;;-2.02;57.77;101351.25;4905924;29;20257;-79
2022/03/22 00:55:32;;;;;;;11.17;8.37;;;;;;;-2.02;57.88;101358.28;4908449;29;20320;-79
2022/03/22 00:57:59;;;;;;;12.83;8.40;;;;;;;-1.99;57.12;101364.16;4914191;29;20631;-78
2022/03/22 01:00:27;;;;;;;11.53;7.93;;;;;;;-1.96;56.50;101355.28;4910829;29;20246;-79
2022/03/22 01:02:58;;;;;;;11.63;8.73;;;;;;;-2.03;56.68;101351.34;4913727;29;20246;-79
2022/03/22 01:05:26;;;;;;;12.43;8.37;;;;;;;-1.97;56.64;101353.56;4912967;29;20265;-79
2022/03/22 01:07:59;;;;;;;11.53;8.37;;;;;;;-2.03;56.86;101349.56;4904319;29;20714;-79
2022/03/22 01:10:28;;;;;;;14.63;9.60;;;;;;;-2.12;57.37;101358.00;4913785;29;21067;-79
2022/03/22 01:12:54;;;;;;;13.97;9.50;;;;;;;-2.13;57.80;101361.56;4910011;29;20322;-79
2022/03/22 01:15:32;;;;;;;13.40;9.53;;;;;;;-2.16;57.90;101356.53;4905568;29;20241;-78
2022/03/22 01:18:06;;;;;;;14.90;10.17;;;;;;;-2.26;58.42;101358.03;4893453;29;20277;-79
2022/03/22 01:20:34;;;;;;;13.73;9.50;;;;;;;-2.34;59.25;101355.91;4901926;29;20237;-79
2022/03/22 01:23:02;;;;;;;15.23;9.93;;;;;;;-2.41;60.15;101351.94;4886584;29;20836;-79
2022/03/22 01:25:34;;;;;;;13.73;9.70;;;;;;;-2.41;60.42;101356.34;4908836;29;20242;-78
2022/03/22 01:28:03;;;;;;;15.77;9.93;;;;;;;-2.44;60.18;101346.91;4906744;29;20756;-78
2022/03/22 01:30:30;;;;;;;15.47;9.53;;;;;;;-2.49;60.42;101346.34;4906572;29;20241;-78
2022/03/22 01:32:57;;;;;;;14.33;9.37;;;;;;;-2.50;60.41;101352.53;4909920;29;20246;-76
2022/03/22 01:35:28;;;;;;;15.13;9.63;;;;;;;-2.53;60.83;101342.22;4908946;29;20249;-77
2022/03/22 01:37:56;;;;;;;15.13;10.27;;;;;;;-2.55;61.47;101346.72;4910579;29;20330;-77
2022/03/22 01:40:25;;;;;;;13.93;10.20;;;;;;;-2.58;61.90;101340.81;4913351;29;20230;-77
2022/03/22 01:42:53;;;;;;;15.73;11.17;;;;;;;-2.59;63.14;101339.97;4905847;29;20238;-76
2022/03/22 01:45:20;;;;;;;16.07;10.50;;;;;;;-2.60;62.65;101337.44;4902882;29;20238;-77
2022/03/22 01:47:47;;;;;;;13.37;10.00;;;;;;;-2.60;63.24;101338.28;4912427;29;20701;-77
2022/03/22 01:50:17;;;;;;;16.00;10.17;;;;;;;-2.62;64.34;101339.31;4911693;29;20238;-77
2022/03/22 01:52:44;;;;;;;14.97;9.90;;;;;;;-2.64;64.27;101336.78;4913409;29;20698;-77
2022/03/22 01:55:16;;;;;;;16.43;9.93;;;;;;;-2.68;63.67;101338.75;4911829;29;20696;-77
2022/03/22 01:57:43;;;;;;;13.97;10.03;;;;;;;-2.68;63.68;101338.75;4904939;29;20234;-78
2022/03/22 02:00:15;;;;;;;14.33;9.70;;;;;;;-2.74;64.19;101333.03;4911953;29;20234;-77
2022/03/22 02:08:18;;;;;;;12.07;9.00;;;;;;;-2.82;65.48;101330.03;4905994;29;20253;-77
2022/03/22 02:10:45;;;;;;;11.53;9.03;;;;;;;-2.84;66.00;101334.50;4910716;29;20237;-78
2022/03/22 02:13:12;;;;;;;15.73;9.73;;;;;;;-2.84;66.44;101334.50;4907937;29;20313;-79
2022/03/22 02:15:39;;;;;;;14.93;9.17;;;;;;;-2.87;66.25;101327.69;4908375;29;20267;-78
2022/03/22 02:18:07;;;;;;;13.40;9.27;;;;;;;-2.90;65.58;101329.66;4903219;29;20705;-80
2022/03/22 02:20:33;;;;;;;13.57;9.20;;;;;;;-2.93;65.16;101330.69;4904839;29;20288;-78
2022/03/22 02:23:04;;;;;;;11.00;9.53;;;;;;;-2.92;65.97;101331.53;4913373;29;20243;-78
2022/03/22 02:25:35;;;;;;;12.60;9.20;;;;;;;-2.91;65.13;101331.44;4912153;29;20321;-79
2022/03/22 02:28:03;;;;;;;12.03;9.20;;;;;;;-2.96;65.24;101336.13;4909746;29;20768;-79
2022/03/22 02:30:30;;;;;;;11.73;8.53;;;;;;;-2.98;65.15;101332.72;4886773;29;20278;-80
2022/03/22 02:33:01;;;;;;;13.83;9.97;;;;;;;-3.00;66.74;101333.78;4902496;29;20246;-79
2022/03/22 02:35:29;;;;;;;11.10;8.87;;;;;;;-3.02;66.92;101322.50;4904287;29;20261;-80
2022/03/22 02:37:58;;;;;;;11.97;9.20;;;;;;;-3.01;67.03;101326.84;4896643;29;20299;-80
2022/03/22 02:40:26;;;;;;;12.57;9.17;;;;;;;-3.05;66.74;101325.34;4905208;29;20697;-80
2022/03/22 02:42:56;;;;;;;12.63;9.30;;;;;;;-3.07;66.87;101324.56;4894709;29;20310;-80
2022/03/22 02:45:23;;;;;;;14.30;9.20;;;;;;;-3.12;66.98;101322.22;4907695;29;20230;-80
2022/03/22 02:47:50;;;;;;;12.70;9.83;;;;;;;-3.08;66.98;101334.25;4897005;29;20264;-79
2022/03/22 02:50:18;;;;;;;12.67;9.33;;;;;;;-3.11;68.16;101331.78;4913356;29;20242;-80
2022/03/22 02:52:48;;;;;;;13.10;8.97;;;;;;;-3.14;67.71;101335.44;4903500;29;20277;-78
2022/03/22 02:55:15;;;;;;;15.07;9.60;;;;;;;-3.13;67.41;101334.47;4914181;29;20237;-78
2022/03/22 02:57:43;;;;;;;13.50;9.50;;;;;;;-3.21;69.21;101336.72;4914104;29;20238;-79
2022/03/22 03:00:12;;;;;;;12.17;9.00;;;;;;;-3.22;68.48;101335.03;4915067;29;20319;-78
2022/03/22 03:02:48;;;;;;;13.00;9.67;;;;;;;-3.26;69.62;101336.16;4914438;29;20285;-78
2022/03/22 03:05:17;;;;;;;12.67;9.43;;;;;;;-3.22;69.87;101344.69;4912537;29;20265;-79
2022/03/22 03:07:43;;;;;;;14.07;9.67;;;;;;;-3.24;70.14;101336.06;4906514;29;20260;-78
2022/03/22 03:10:11;;;;;;;15.10;9.33;;;;;;;-3.37;72.64;101337.72;4915178;29;20245;-78
2022/03/22 03:12:38;;;;;;;16.43;9.93;;;;;;;-3.44;74.34;101341.63;4916572;29;20261;-80
2022/03/22 03:15:06;;;;;;;12.37;9.83;;;;;;;-3.51;74.73;101346.38;4903878;29;20245;-80
2022/03/22 03:17:33;;;;;;;13.60;10.10;;;;;;;-3.53;74.92;101348.25;4923672;29;20243;-79
2022/03/22 03:20:00;;;;;;;13.97;9.77;;;;;;;-3.50;74.79;101352.47;4919844;29;20719;-80
2022/03/22 03:22:27;;;;;;;15.67;9.73;;;;;;;-3.50;73.69;101352.47;4924459;29;20665;-79
2022/03/22 03:24:54;;;;;;;14.43;9.80;;;;;;;-3.60;74.78;101347.75;4920716;29;20243;-79
2022/03/22 03:27:22;;;;;;;14.17;9.67;;;;;;;-3.64;76.23;101348.03;4893266;29;20239;-81
2022/03/22 03:29:50;;;;;;;14.03;10.13;;;;;;;-3.68;76.75;101349.09;4913604;29;20242;-81
2022/03/22 03:32:16;;;;;;;13.90;10.23;;;;;;;-3.73;77.81;101344.13;4892010;29;20234;-79
2022/03/22 03:34:45;;;;;;;17.73;12.27;;;;;;;-3.70;77.52;101348.38;4912294;29;20233;-80
2022/03/22 03:37:12;;;;;;;20.03;14.53;;;;;;;-3.74;76.90;101344.25;4897131;29;20333;-79
2022/03/22 03:39:40;;;;;;;21.80;15.20;;;;;;;-3.75;77.63;101353.88;4907036;29;20317;-78
2022/03/22 03:42:07;;;;;;;21.63;16.00;;;;;;;-3.79;77.13;101347.13;4912353;29;20270;-79
2022/03/22 03:47:37;;;;;;;20.77;14.43;;;;;;;-3.84;77.78;101357.00;4871422;29;20234;-78
2022/03/22 03:50:07;;;;;;;19.27;14.10;;;;;;;-3.88;79.04;101359.88;4893518;29;20250;-79
2022/03/22 03:52:35;;;;;;;16.27;13.07;;;;;;;-3.92;78.46;101355.75;4913571;29;20242;-79
2022/03/22 03:55:06;;;;;;;16.13;12.47;;;;;;;-3.95;79.85;101361.13;4907047;29;20254;-79
2022/03/22 03:57:35;;;;;;;18.80;14.37;;;;;;;-3.96;79.33;101360.28;4917844;29;21055;-78
2022/03/22 04:00:04;;;;;;;17.57;15.23;;;;;;;-4.00;79.85;101359.63;4902511;29;20261;-77
2022/03/22 04:02:37;;;;;;;18.27;15.57;;;;;;;-3.96;79.62;101367.28;4916234;29;20724;-79
2022/03/22 04:05:05;;;;;;;18.97;14.17;;;;;;;-4.00;79.81;101369.25;4912871;29;20756;-78
2022/03/22 04:07:31;;;;;;;17.87;12.90;;;;;;;-4.06;80.83;101367.00;4909619;29;20261;-79
2022/03/22 04:09:58;;;;;;;16.03;11.70;;;;;;;-4.07;82.06;101368.75;4907796;29;20326;-79
2022/03/22 04:12:26;;;;;;;14.27;11.20;;;;;;;-4.09;84.87;101368.00;4905949;29;20262;-79
2022/03/22 04:14:53;;;;;;;15.63;11.10;;;;;;;-4.07;84.17;101375.75;4912713;29;20607;-79
2022/03/22 04:17:20;;;;;;;14.77;10.93;;;;;;;-4.11;86.21;101366.41;4914535;29;20284;-79
2022/03/22 04:19:48;;;;;;;14.10;10.30;;;;;;;-4.13;86.78;101366.47;4913675;29;20240;-79
2022/03/22 04:22:16;;;;;;;15.50;10.13;;;;;;;-4.13;86.08;101373.47;4913216;29;20244;-79
2022/03/22 04:24:43;;;;;;;12.13;9.43;;;;;;;-4.20;87.62;101372.94;4911012;29;20240;-78
2022/03/22 04:32:43;;;;;;;13.90;11.30;;;;;;;-4.19;85.53;101376.41;4906139;29;20249;-78
2022/03/22 04:35:19;;;;;;;13.70;11.47;;;;;;;-4.21;85.27;101378.28;4909413;29;20358;-79
2022/03/22 04:37:47;;;;;;;16.77;12.33;;;;;;;-4.21;87.22;101375.69;4909764;29;20305;-80
2022/03/22 04:40:14;;;;;;;16.90;11.20;;;;;;;-4.23;87.31;101375.75;4911938;29;20330;-78
2022/03/22 04:42:42;;;;;;;17.03;11.50;;;;;;;-4.26;87.84;101383.78;4913463;29;20736;-78
2022/03/22 04:45:09;;;;;;;14.67;11.10;;;;;;;-4.28;88.71;101393.47;4910715;29;20270;-78
2022/03/22 04:47:36;;;;;;;16.33;9.93;;;;;;;-4.30;90.91;101384.88;4912393;29;20265;-78
2022/03/22 04:50:04;;;;;;;13.67;9.83;;;;;;;-4.27;92.61;101394.31;4911144;29;20246;-78
2022/03/22 04:58:02;;;;;;;15.17;9.50;;;;;;;-4.24;90.58;101389.75;4913178;29;20683;-77
2022/03/22 05:00:29;;;;;;;13.53;9.00;;;;;;;-4.19;88.70;101394.75;4898162;29;20242;-78
2022/03/22 05:02:57;;;;;;;14.53;9.60;;;;;;;-4.19;88.00;101394.75;4909814;29;20230;-78
2022/03/22 05:08:09;;;;;;;13.27;9.20;;;;;;;-4.12;88.29;101398.72;4910005;29;20653;-78
2022/03/22 05:10:36;;;;;;;13.73;11.40;;;;;;;-4.11;87.53;101400.44;4913371;29;20262;-77
2022/03/22 05:13:04;;;;;;;15.57;11.87;;;;;;;-4.06;86.80;101406.25;4911394;29;20777;-77
2022/03/22 05:15:33;;;;;;;18.37;10.97;;;;;;;-4.02;86.71;101402.53;4902388;29;20230;-78
2022/03/22 05:18:01;;;;;;;13.63;9.73;;;;;;;-3.97;87.43;101408.38;4905903;29;20270;-75
2022/03/22 05:20:29;;;;;;;15.53;9.90;;;;;;;-3.94;88.30;101402.09;4903002;29;20238;-78
2022/03/22 05:22:58;;;;;;;13.00;9.90;;;;;;;-3.90;90.31;101403.63;4904703;29;20654;-78
2022/03/22 05:25:30;;;;;;;13.87;9.63;;;;;;;-3.85;88.71;101406.84;4911281;29;20859;-78
2022/03/22 05:28:03;;;;;;;13.37;9.57;;;;;;;-3.77;88.08;101413.34;4911551;29;20321;-77
2022/03/22 05:30:31;;;;;;;14.53;9.60;;;;;;;-3.72;85.75;101405.22;4908974;29;20238;-78
2022/03/22 05:32:59;;;;;;;18.13;8.73;;;;;;;-3.65;82.56;101411.81;4904773;29;20325;-77
2022/03/22 05:35:26;;;;;;;13.33;9.23;;;;;;;-3.54;83.51;101414.66;4902578;29;20234;-78
2022/03/22 05:37:53;;;;;;;14.90;9.37;;;;;;;-3.44;81.67;101417.63;4905289;29;20681;-78
2022/03/22 05:40:20;;;;;;;13.60;10.20;;;;;;;-3.30;79.79;101407.19;4908994;29;20809;-78
2022/03/22 05:42:47;;;;;;;17.13;12.10;;;;;;;-3.15;77.22;101417.66;4907425;29;20233;-77
2022/03/22 05:45:15;;;;;;;15.90;10.87;;;;;;;-3.01;74.78;101410.75;4902802;29;20232;-79
2022/03/22 05:47:42;;;;;;;12.63;9.67;;;;;;;-2.87;73.11;101411.63;4904220;29;20321;-77
2022/03/22 05:50:09;;;;;;;13.50;9.63;;;;;;;-2.74;73.05;101412.59;4905788;29;20235;-77
2022/03/22 05:52:44;;;;;;;11.60;9.33;;;;;;;-2.54;71.77;101416.66;4912609;29;20248;-77
2022/03/22 05:55:11;;;;;;;13.50;8.90;;;;;;;-2.40;70.11;101410.56;4909555;29;20329;-78
2022/03/22 05:57:38;;;;;;;15.67;9.27;;;;;;;-2.20;69.62;101409.34;4907597;29;20254;-78
2022/03/22 06:00:06;;;;;;;12.23;8.73;;;;;;;-2.02;68.63;101416.91;4904002;29;20667;-78
2022/03/22 06:02:36;;;;;;;13.13;8.90;;;;;;;-1.86;67.15;101415.00;4909346;29;20714;-78
2022/03/22 06:05:08;;;;;;;13.47;9.43;;;;;;;-1.68;64.87;101422.66;4904594;29;20670;-78
2022/03/22 06:07:39;;;;;;;15.07;9.70;;;;;;;-1.49;64.44;101425.78;4898045;29;20280;-78
2022/03/22 06:10:07;;;;;;;16.30;10.10;;;;;;;-1.31;62.96;101429.03;4909327;29;20238;-77
2022/03/22 06:12:39;;;;;;;13.03;9.57;;;;;;;-1.20;61.85;101423.88;4893133;29;20262;-78
2022/03/22 06:15:25;;;;;;;13.77;9.83;;;;;;;-1.03;60.83;101421.00;4901896;29;20294;-77
2022/03/22 06:17:56;;;;;;;15.10;9.70;;;;;;;-0.81;59.73;101428.28;4914731;29;20253;-78
2022/03/22 06:20:27;;;;;;;15.83;10.33;;;;;;;-0.64;59.25;101428.84;4911764;29;20265;-78
2022/03/22 06:22:55;;;;;;;15.90;9.90;;;;;;;-0.46;58.33;101432.00;4911793;29;20234;-78
2022/03/22 06:25:22;;;;;;;13.40;9.90;;;;;;;-0.29;57.28;101433.47;4908370;29;20305;-78
2022/03/22 06:27:50;;;;;;;15.37;9.73;;;;;;;-0.14;57.01;101440.31;4906784;29;20240;-77
2022/03/22 06:30:18;;;;;;;14.20;9.87;;;;;;;0.01;56.08;101439.22;4907081;29;20716;-78
2022/03/22 06:32:50;;;;;;;12.60;10.00;;;;;;;0.16;56.04;101438.16;4908215;29;20249;-78
2022/03/22 06:35:27;;;;;;;14.50;10.07;;;;;;;0.34;55.41;101434.19;4913300;29;20269;-78
2022/03/22 06:37:55;;;;;;;14.90;9.67;;;;;;;0.56;55.13;101443.22;4903972;29;20243;-77
2022/03/22 06:40:23;;;;;;;13.97;9.83;;;;;;;0.70;54.97;101441.22;4914756;29;20242;-78
2022/03/22 06:42:50;;;;;;;14.97;10.60;;;;;;;0.88;54.18;101436.41;4915677;29;20265;-79
2022/03/22 06:45:17;;;;;;;14.37;10.27;;;;;;;1.03;53.85;101434.41;4913272;29;20317;-79
2022/03/22 06:47:44;;;;;;;13.00;10.30;;;;;;;1.16;53.78;101433.41;4915942;29;20269;-79
2022/03/22 06:50:13;;;;;;;14.40;10.53;;;;;;;1.31;54.83;101440.13;4912327;29;20291;-78
2022/03/22 06:52:41;;;;;;;14.80;10.63;;;;;;;1.50;54.18;101444.84;4901257;29;20245;-78
2022/03/22 06:55:08;;;;;;;16.93;12.13;;;;;;;1.67;53.81;101447.06;4912941;29;20260;-78
2022/03/22 06:57:36;;;;;;;20.10;13.50;;;;;;;1.82;52.43;101439.72;4915365;29;20320;-78
2022/03/22 07:00:06;;;;;;;16.47;10.83;;;;;;;1.99;51.26;101441.06;4912409;29;20230;-78
2022/03/22 07:02:33;;;;;;;17.33;12.10;;;;;;;2.17;49.93;101447.53;4910541;29;20230;-78
2022/03/22 07:05:00;;;;;;;26.23;17.00;;;;;;;2.35;50.17;101442.59;4904362;29;20235;-78
2022/03/22 07:07:27;;;;;;;17.87;12.67;;;;;;;2.46;49.10;101442.56;4909829;29;20241;-78
2022/03/22 07:09:53;;;;;;;19.27;13.00;;;;;;;2.60;48.87;101447.59;4912068;29;20282;-78
2022/03/22 07:12:20;;;;;;;45.77;27.70;;;;;;;2.78;48.59;101439.94;4912798;29;20250;-78
2022/03/22 07:14:47;;;;;;;25.77;17.27;;;;;;;2.94;48.03;101446.50;4893560;29;20223;-78
2022/03/22 07:17:14;;;;;;;20.47;13.07;;;;;;;3.10;47.99;101440.78;4891954;29;20246;-78
2022/03/22 07:19:47;;;;;;;18.77;12.17;;;;;;;3.27;46.63;101444.66;4893948;29;20232;-78
2022/03/22 07:22:14;;;;;;;14.47;11.33;;;;;;;3.46;45.90;101445.63;4892601;29;20404;-78
2022/03/22 07:24:41;;;;;;;14.47;11.57;;;;;;;3.61;45.57;101440.00;4893146;29;20250;-79
2022/03/22 07:27:07;;;;;;;14.23;11.10;;;;;;;3.72;45.33;101443.44;4889472;29;20247;-76
2022/03/22 07:29:34;;;;;;;13.43;10.97;;;;;;;3.89;44.22;101442.81;4896727;29;20659;-76
2022/03/22 07:32:01;;;;;;;17.17;11.83;;;;;;;4.01;43.17;101440.91;4901822;29;20234;-76
2022/03/22 07:34:28;;;;;;;15.57;11.13;;;;;;;4.17;42.93;101441.25;4908052;29;20238;-77
2022/03/22 07:36:55;;;;;;;12.70;11.07;;;;;;;4.30;42.31;101444.50;4911733;29;20242;-77
2022/03/22 07:39:23;;;;;;;15.53;10.87;;;;;;;4.46;41.69;101446.63;4901099;29;20729;-77
2022/03/22 07:41:50;;;;;;;13.67;11.27;;;;;;;4.65;41.84;101448.50;4909897;29;20376;-78
2022/03/22 07:44:17;;;;;;;16.00;11.37;;;;;;;4.79;41.53;101448.09;4912291;29;20234;-76
2022/03/22 07:46:45;;;;;;;13.40;11.50;;;;;;;4.93;41.09;101445.03;4910744;29;20231;-77
2022/03/22 07:54:43;;;;;;;15.20;12.20;;;;;;;5.52;39.67;101434.19;4917111;29;20237;-78
2022/03/22 07:57:09;;;;;;;15.50;11.63;;;;;;;5.67;39.10;101439.91;4902400;29;20329;-77
2022/03/22 07:59:36;;;;;;;17.00;11.47;;;;;;;5.85;39.50;101442.66;4915333;29;20614;-77
2022/03/22 08:02:04;;;;;;;14.17;11.03;;;;;;;6.00;39.33;101433.25;4912866;29;20625;-78
2022/03/22 08:04:31;;;;;;;15.90;12.07;;;;;;;6.15;39.40;101429.97;4912416;29;20246;-78
2022/03/22 08:06:58;;;;;;;14.20;11.47;;;;;;;6.35;39.57;101427.19;4905435;29;20679;-78
2022/03/22 08:09:24;;;;;;;16.30;11.90;;;;;;;6.57;37.99;101429.47;4908458;29;20746;-78
2022/03/22 08:11:51;;;;;;;14.43;11.83;;;;;;;6.79;35.89;101430.84;4914371;29;20240;-78
2022/03/22 08:14:19;;;;;;;17.43;11.73;;;;;;;6.91;36.02;101427.78;4908338;29;20233;-78
2022/03/22 08:16:46;;;;;;;13.37;11.97;;;;;;;7.07;36.74;101430.63;4913779;29;20701;-77
2022/03/22 08:19:17;;;;;;;19.93;11.73;;;;;;;7.28;35.79;101427.59;4912537;29;20240;-77
2022/03/22 08:21:46;;;;;;;15.57;11.83;;;;;;;7.47;35.62;101437.25;4891612;29;20228;-77
2022/03/22 08:24:13;;;;;;;16.33;11.30;;;;;;;7.68;35.35;101432.41;4904206;29;20239;-77
2022/03/22 08:26:40;;;;;;;17.10;11.67;;;;;;;7.82;34.80;101436.31;4900125;29;20238;-77
2022/03/22 08:29:07;;;;;;;19.03;12.10;;;;;;;7.98;34.63;101434.56;4899889;29;20238;-77
2022/03/22 08:31:35;;;;;;;15.47;11.77;;;;;;;8.11;34.90;101434.16;4910832;29;20282;-77
2022/03/22 08:34:03;;;;;;;16.13;11.37;;;;;;;8.21;34.69;101437.50;4912808;29;20234;-77
2022/03/22 08:36:33;;;;;;;16.50;12.03;;;;;;;8.52;34.45;101429.81;4912858;29;20296;-77
2022/03/22 08:39:00;;;;;;;16.03;12.43;;;;;;;8.65;34.42;101426.66;4904714;29;20285;-77
2022/03/22 08:41:27;;;;;;;15.40;12.20;;;;;;;8.78;33.94;101417.19;4906849;29;20247;-78
2022/03/22 08:43:54;;;;;;;14.00;11.97;;;;;;;8.95;34.64;101428.75;4908954;29;20253;-78
2022/03/22 08:46:24;;;;;;;15.83;12.23;;;;;;;9.12;33.22;101421.56;4910442;29;20249;-78
2022/03/22 08:48:52;;;;;;;15.03;11.70;;;;;;;9.40;33.01;101420.22;4905227;29;20238;-77
2022/03/22 08:51:20;;;;;;;16.03;11.70;;;;;;;9.57;32.82;101411.16;4904835;29;20297;-77
2022/03/22 08:53:48;;;;;;;19.07;12.20;;;;;;;9.75;32.48;101410.13;4896341;29;20246;-77
2022/03/22 08:56:15;;;;;;;14.90;11.33;;;;;;;9.91;32.49;101415.44;4906818;29;20655;-78
2022/03/22 08:58:42;;;;;;;14.40;11.87;;;;;;;10.22;31.21;101408.31;4910860;29;20275;-77
2022/03/22 09:01:09;;;;;;;16.37;11.20;;;;;;;10.35;30.39;101400.56;4910089;29;20317;-78
2022/03/22 09:03:38;;;;;;;15.37;11.17;;;;;;;10.56;29.93;101406.13;4905797;29;20238;-77
2022/03/22 09:06:07;;;;;;;13.20;11.43;;;;;;;10.79;27.54;101397.25;4907652;29;20266;-77
2022/03/22 09:08:36;;;;;;;13.07;10.80;;;;;;;10.94;27.65;101390.97;4907133;29;20313;-77
2022/03/22 09:11:03;;;;;;;12.67;11.27;;;;;;;11.14;27.39;101385.94;4909937;29;20258;-77
2022/03/22 09:13:37;;;;;;;11.97;10.77;;;;;;;11.37;26.60;101389.44;4913259;29;20324;-76
2022/03/22 09:16:05;;;;;;;11.90;10.70;;;;;;;11.57;25.72;101386.22;4910165;29;20230;-76
2022/03/22 09:18:32;;;;;;;13.37;9.83;;;;;;;11.87;26.23;101394.13;4904888;29;20313;-77
2022/03/22 09:21:00;;;;;;;13.30;10.20;;;;;;;12.05;24.61;101392.91;4892740;29;20229;-77
2022/03/22 09:23:27;;;;;;;13.03;9.63;;;;;;;12.16;24.57;101392.44;4903263;29;20609;-77
2022/03/22 09:25:54;;;;;;;10.70;9.27;;;;;;;12.27;23.89;101382.03;4910181;29;20686;-77
2022/03/22 09:28:21;;;;;;;11.37;8.93;;;;;;;12.46;23.47;101385.16;4908502;29;20238;-79
2022/03/22 09:30:48;;;;;;;10.30;8.80;;;;;;;12.50;23.59;101387.28;4896099;29;20325;-76
2022/03/22 09:33:16;;;;;;;14.00;9.93;;;;;;;12.68;22.68;101384.16;4914033;29;20233;-77
2022/03/22 09:35:44;;;;;;;10.20;8.60;;;;;;;12.69;22.91;101375.88;4915058;29;20242;-77
2022/03/22 09:38:15;;;;;;;10.17;9.13;;;;;;;12.81;23.17;101373.53;4913270;29;20241;-77
2022/03/22 09:40:42;;;;;;;10.67;9.40;;;;;;;12.90;22.89;101387.69;4909798;29;20391;-77
2022/03/22 09:43:09;;;;;;;10.33;9.23;;;;;;;12.99;22.65;101375.78;4917516;29;20233;-77
2022/03/22 09:45:36;;;;;;;10.07;9.07;;;;;;;13.03;22.33;101374.34;4902862;29;20237;-76
2022/03/22 09:48:04;;;;;;;11.73;8.97;;;;;;;13.23;21.99;101373.53;4906565;29;20234;-76
2022/03/22 09:53:17;;;;;;;10.60;9.33;;;;;;;13.29;22.14;101371.09;4915570;29;20230;-77
2022/03/22 09:55:45;;;;;;;10.53;9.43;;;;;;;13.25;21.78;101365.25;4911847;29;20300;-77
2022/03/22 09:58:12;;;;;;;9.93;8.93;;;;;;;13.42;21.52;101369.34;4902982;29;20238;-77
2022/03/22 10:00:40;;;;;;;11.57;9.33;;;;;;;13.47;21.99;101371.44;4907600;29;20234;-77
2022/03/22 10:03:07;;;;;;;11.20;9.20;;;;;;;13.54;22.41;101361.53;4911086;29;20261;-77
2022/03/22 10:05:34;;;;;;;13.10;10.20;;;;;;;13.63;21.94;101368.44;4916743;29;20244;-77
2022/03/22 10:08:06;;;;;;;10.37;9.27;;;;;;;13.59;21.95;101353.69;4915691;29;20234;-76
2022/03/22 10:10:34;;;;;;;10.80;9.37;;;;;;;13.62;21.93;101354.13;4907955;29;20242;-77
2022/03/22 10:13:03;;;;;;;10.80;9.70;;;;;;;13.83;21.98;101357.78;4915416;29;20249;-77
2022/03/22 10:15:32;;;;;;;13.33;10.03;;;;;;;13.94;21.02;101354.53;4912926;29;20868;-77
2022/03/22 10:18:04;;;;;;;10.53;9.43;;;;;;;13.83;21.51;101350.53;4914277;29;20301;-76
2022/03/22 10:20:34;;;;;;;11.83;9.83;;;;;;;13.95;22.23;101348.13;4913613;29;20237;-77
2022/03/22 10:23:02;;;;;;;12.87;10.43;;;;;;;14.01;21.77;101344.59;4909326;29;20248;-77
2022/03/22 10:25:33;;;;;;;14.37;10.20;;;;;;;14.15;22.48;101340.94;4899487;29;20266;-76
2022/03/22 10:28:02;;;;;;;11.83;9.90;;;;;;;14.26;21.71;101332.28;4911318;29;20281;-77
2022/03/22 10:30:29;;;;;;;10.63;9.50;;;;;;;14.31;21.28;101337.06;4899979;29;20338;-76
2022/03/22 10:32:56;;;;;;;10.80;9.70;;;;;;;14.32;21.11;101336.03;4907981;29;20232;-76
2022/03/22 10:35:30;;;;;;;13.10;9.40;;;;;;;14.40;21.28;101330.47;4907442;29;20317;-77
2022/03/22 10:37:58;;;;;;;10.93;9.83;;;;;;;14.39;22.30;101332.34;4913753;29;20321;-77
2022/03/22 10:40:42;;;;;;;12.13;9.30;;;;;;;14.52;21.43;101332.38;4893184;29;20243;-76
2022/03/22 10:43:11;;;;;;;13.37;10.20;;;;;;;14.65;20.55;101341.53;4909967;29;20274;-76
2022/03/22 10:45:48;;;;;;;10.83;9.83;;;;;;;14.61;20.94;101327.59;4901272;29;20332;-77
2022/03/22 10:48:26;;;;;;;14.90;10.53;;;;;;;14.70;20.89;101326.38;4912284;29;20234;-76
2022/03/22 10:50:57;;;;;;;11.60;9.73;;;;;;;14.75;20.48;101320.38;4898485;29;20290;-77
2022/03/22 10:53:26;;;;;;;11.47;9.60;;;;;;;14.67;21.03;101317.88;4916043;29;20226;-76
2022/03/22 10:56:00;;;;;;;13.67;9.73;;;;;;;14.76;20.34;101314.78;4902745;29;20247;-76
2022/03/22 10:58:28;;;;;;;12.77;10.27;;;;;;;14.86;20.79;101301.72;4915247;29;20235;-77
2022/03/22 11:00:56;;;;;;;10.53;9.40;;;;;;;14.91;20.36;101301.91;4909914;29;20319;-76
2022/03/22 11:03:24;;;;;;;11.70;10.07;;;;;;;14.94;20.80;101297.97;4921405;29;20609;-76
2022/03/22 11:05:53;;;;;;;10.97;9.83;;;;;;;14.93;20.78;101296.31;4915033;29;20274;-76
2022/03/22 11:08:22;;;;;;;10.87;9.77;;;;;;;14.97;21.08;101301.09;4912545;29;20236;-76
2022/03/22 11:10:51;;;;;;;10.97;9.87;;;;;;;15.09;20.66;101292.34;4921248;29;20239;-76
2022/03/22 11:13:17;;;;;;;13.93;10.73;;;;;;;15.05;20.60;101293.81;4920496;29;20308;-76
2022/03/22 11:15:46;;;;;;;11.13;9.77;;;;;;;15.06;20.58;101295.47;4906913;29;20290;-77
2022/03/22 11:18:15;;;;;;;11.47;9.77;;;;;;;15.06;20.54;101282.00;4911472;29;20680;-77
2022/03/22 11:21:08;;;;;;;10.70;9.70;;;;;;;15.23;21.14;101289.44;4908804;29;20235;-76
2022/03/22 11:23:35;;;;;;;11.50;10.30;;;;;;;15.35;20.73;101284.25;4909610;29;20235;-77
2022/03/22 11:26:10;;;;;;;11.97;10.73;;;;;;;15.48;20.51;101280.66;4917241;29;20259;-76
2022/03/22 11:28:39;;;;;;;11.73;10.50;;;;;;;15.52;20.25;101273.84;4920937;29;20245;-77
2022/03/22 11:31:09;;;;;;;12.20;10.87;;;;;;;15.55;20.81;101274.22;4902503;29;20292;-76
2022/03/22 11:36:28;;;;;;;12.27;10.57;;;;;;;15.70;20.43;101264.00;4899849;29;20260;-76
2022/03/22 11:38:56;;;;;;;10.90;9.87;;;;;;;15.86;20.27;101263.50;4910212;29;20243;-77
2022/03/22 11:44:27;;;;;;;14.60;10.87;;;;;;;15.91;20.73;101251.25;4910371;29;20327;-77
2022/03/22 11:47:07;;;;;;;12.23;10.57;;;;;;;16.07;20.98;101248.03;4889711;29;20239;-76
2022/03/22 11:49:55;;;;;;;13.80;10.50;;;;;;;16.21;20.44;101247.75;4917152;29;20268;-76
2022/03/22 11:52:23;;;;;;;11.80;10.70;;;;;;;16.15;20.60;101248.59;4910093;29;20822;-76
2022/03/22 11:54:56;;;;;;;11.50;10.30;;;;;;;16.36;20.32;101235.78;4910765;29;20235;-77
2022/03/22 11:57:23;;;;;;;11.07;9.87;;;;;;;16.40;20.52;101237.00;4917101;29;20789;-77